Time;durP1;ratioP1;P1;durP2;ratioP2;P2;SDS_P1;SDS_P2;PMS_P1;PMS_P2;Temp;Humidity;BMP_temperature;BMP_pressure;BME280_temperature;BME280_humidity;BME280_pressure;Samples;Min_cycle;Max_cycle;Signal;HPM_P1;HPM_P2
2021/12/09 08:38:32;;;;;;;54.53;30.88;;;2.00;99.90;;;;;;5111058;27;20468;-75
2021/12/09 08:41:30;;;;;;;91.82;58.60;;;2.10;99.90;;;;;;5109723;28;20134;-75
2021/12/09 08:44:10;;;;;;;62.38;37.03;;;2.40;99.90;;;;;;5110808;28;20097;-76
2021/12/09 08:46:42;;;;;;;55.88;32.10;;;2.70;99.90;;;;;;5094295;28;20044;-80
2021/12/09 08:49:10;;;;;;;58.72;34.97;;;2.70;99.90;;;;;;5089350;28;20044;-80
2021/12/09 08:51:40;;;;;;;43.92;25.02;;;2.80;99.90;;;;;;5090791;28;20043;-78
2021/12/09 08:54:10;;;;;;;40.72;24.50;;;2.80;99.90;;;;;;5090396;28;20067;-75
2021/12/09 08:56:37;;;;;;;44.83;26.75;;;2.60;99.90;;;;;;5089138;28;20069;-76
2021/12/09 08:59:30;;;;;;;44.22;27.48;;;2.80;99.90;;;;;;5090675;28;20115;-76
2021/12/09 09:02:10;;;;;;;45.60;27.55;;;3.10;99.90;;;;;;5090341;28;20040;-76
2021/12/09 09:05:03;;;;;;;58.20;33.72;;;3.00;99.90;;;;;;5090339;28;20041;-77
2021/12/09 09:07:40;;;;;;;43.22;24.10;;;2.90;99.90;;;;;;5090576;28;20456;-76
2021/12/09 09:10:09;;;;;;;40.25;24.23;;;3.00;99.90;;;;;;5089812;28;20075;-76
2021/12/09 09:12:49;;;;;;;42.28;23.88;;;3.10;99.90;;;;;;5090157;28;20037;-76
2021/12/09 09:15:42;;;;;;;49.92;28.23;;;3.30;99.90;;;;;;5087698;28;20036;-76
2021/12/09 09:18:21;;;;;;;49.42;27.35;;;3.40;99.90;;;;;;5090004;28;20040;-76
2021/12/09 09:20:49;;;;;;;49.70;26.63;;;3.30;99.90;;;;;;5089575;28;20040;-76
2021/12/09 09:23:50;;;;;;;41.55;24.13;;;3.30;99.90;;;;;;5089882;28;20032;-76
2021/12/09 09:26:17;;;;;;;48.83;26.17;;;3.30;99.90;;;;;;5115676;28;20431;-76
2021/12/09 09:28:45;;;;;;;50.42;26.50;;;3.20;99.90;;;;;;5101337;28;20079;-77
2021/12/09 09:31:42;;;;;;;48.25;26.02;;;3.40;99.90;;;;;;5109998;28;20372;-76
2021/12/09 09:34:11;;;;;;;47.28;25.02;;;3.50;99.90;;;;;;5089933;28;20037;-76
2021/12/09 09:36:44;;;;;;;48.45;27.65;;;3.50;99.90;;;;;;5088337;28;20098;-76
2021/12/09 09:39:33;;;;;;;44.65;25.42;;;3.50;99.90;;;;;;5089601;28;20044;-76
2021/12/09 09:45:06;;;;;;;38.95;23.30;;;4.20;99.90;;;;;;5078185;28;20127;-77
2021/12/09 09:47:35;;;;;;;35.13;22.70;;;4.40;99.90;;;;;;5088103;28;20048;-76
2021/12/09 09:50:07;;;;;;;35.05;22.92;;;4.20;99.90;;;;;;5074064;28;20049;-76
2021/12/09 09:52:36;;;;;;;34.80;22.58;;;4.30;99.90;;;;;;5074546;28;20071;-78
2021/12/09 09:55:20;;;;;;;36.22;22.85;;;4.10;99.90;;;;;;5074583;28;20405;-77
2021/12/09 09:57:51;;;;;;;36.90;23.55;;;3.90;99.90;;;;;;5076410;28;20461;-76
2021/12/09 10:00:21;;;;;;;40.78;24.55;;;3.90;99.90;;;;;;5075334;28;20055;-77
2021/12/09 10:02:53;;;;;;;38.65;24.33;;;4.10;99.90;;;;;;5057735;28;20040;-76
2021/12/09 10:05:33;;;;;;;42.85;25.80;;;4.00;99.90;;;;;;5074595;28;20048;-76
2021/12/09 10:08:02;;;;;;;43.40;25.10;;;4.10;99.90;;;;;;5099735;28;20078;-75
2021/12/09 10:10:31;;;;;;;46.42;26.08;;;4.10;99.90;;;;;;5093709;28;20052;-76
2021/12/09 10:13:06;;;;;;;44.35;26.35;;;4.00;99.90;;;;;;5094905;28;20036;-76
2021/12/09 10:15:43;;;;;;;44.83;26.10;;;4.00;99.90;;;;;;5095221;28;20040;-75
2021/12/09 10:18:30;;;;;;;45.22;27.08;;;4.10;99.90;;;;;;5093811;28;20127;-75
2021/12/09 10:21:21;;;;;;;44.47;26.30;;;3.80;99.90;;;;;;5075576;28;20041;-75
2021/12/09 10:24:07;;;;;;;44.92;27.33;;;3.80;99.90;;;;;;5074057;28;20048;-77
2021/12/09 10:26:45;;;;;;;49.38;29.08;;;3.80;99.90;;;;;;5074088;28;20040;-77
2021/12/09 10:29:42;;;;;;;51.42;29.00;;;3.70;99.90;;;;;;5075259;28;20445;-77
2021/12/09 10:32:16;;;;;;;52.15;28.40;;;3.60;99.90;;;;;;5090428;28;20071;-77
2021/12/09 10:38:47;;;;;;;51.40;29.13;;;3.70;99.90;;;;;;5075365;28;20067;-76
2021/12/09 10:41:34;;;;;;;60.78;33.08;;;3.80;99.90;;;;;;5073400;28;20056;-76
2021/12/09 10:44:02;;;;;;;59.50;33.17;;;3.90;99.90;;;;;;5078743;28;20490;-80
2021/12/09 10:47:24;;;;;;;52.83;30.38;;;4.00;99.90;;;;;;5093385;28;20075;-76
2021/12/09 10:50:58;;;;;;;50.75;29.63;;;3.90;99.90;;;;;;5093918;28;20546;-76
2021/12/09 10:53:51;;;;;;;52.25;29.92;;;3.90;99.90;;;;;;5095113;28;20101;-76
2021/12/09 10:56:36;;;;;;;49.70;29.13;;;4.20;99.90;;;;;;5094892;28;20046;-77
2021/12/09 10:59:04;;;;;;;55.97;30.55;;;4.10;99.90;;;;;;5093284;28;20139;-77
2021/12/09 11:01:38;;;;;;;50.10;28.98;;;3.90;99.90;;;;;;5093789;28;20509;-77
2021/12/09 11:04:33;;;;;;;51.92;30.25;;;4.00;99.90;;;;;;5095751;28;20471;-77
2021/12/09 11:07:19;;;;;;;53.13;31.02;;;3.90;99.90;;;;;;5093582;28;20051;-77
2021/12/09 11:10:17;;;;;;;55.20;31.27;;;4.00;99.90;;;;;;5093325;28;20387;-77
2021/12/09 11:12:56;;;;;;;64.72;31.27;;;4.00;99.90;;;;;;5093579;28;20048;-77
2021/12/09 11:15:56;;;;;;;63.70;33.75;;;4.20;99.90;;;;;;5093305;28;20448;-77
2021/12/09 11:18:37;;;;;;;66.07;33.50;;;4.00;99.90;;;;;;5094500;28;20223;-77
2021/12/09 11:21:21;;;;;;;59.88;32.70;;;4.00;99.90;;;;;;5094635;28;20111;-76
2021/12/09 11:24:02;;;;;;;68.13;35.80;;;3.90;99.90;;;;;;5094596;28;20123;-77
2021/12/09 11:29:44;;;;;;;71.05;36.80;;;3.90;99.90;;;;;;5094406;28;20592;-77
2021/12/09 11:35:23;;;;;;;70.30;37.92;;;4.10;99.90;;;;;;5092696;28;20547;-77
2021/12/09 11:38:05;;;;;;;69.05;37.60;;;4.00;99.90;;;;;;5094489;28;20476;-76
2021/12/09 11:40:46;;;;;;;74.95;36.88;;;4.10;99.90;;;;;;5093192;28;20402;-76
2021/12/09 11:43:25;;;;;;;75.25;39.08;;;4.00;99.90;;;;;;5092722;28;20070;-77
2021/12/09 11:46:00;;;;;;;77.55;39.25;;;4.00;99.90;;;;;;5092697;28;20048;-76
2021/12/09 11:48:32;;;;;;;;;;;4.10;99.90;;;;;;5094190;28;20085;-76
2021/12/09 11:51:01;;;;;;;87.65;40.38;;;4.00;99.90;;;;;;5109896;28;19924;-76
2021/12/09 11:53:37;;;;;;;86.35;42.63;;;4.20;99.90;;;;;;5094192;28;20044;-76
2021/12/09 11:56:23;;;;;;;84.32;42.38;;;4.40;99.90;;;;;;5094060;28;20040;-76
2021/12/09 12:11:07;;;;;;;80.53;41.03;;;4.50;99.90;;;;;;5093321;28;20043;-76
2021/12/09 12:13:56;;;;;;;68.00;37.15;;;4.60;99.90;;;;;;5093623;28;20047;-76
2021/12/09 12:17:16;;;;;;;67.15;34.45;;;4.40;99.90;;;;;;5094255;28;20036;-76
2021/12/09 12:20:25;;;;;;;64.43;34.22;;;4.60;99.90;;;;;;5092235;28;20320;-76
2021/12/09 12:40:13;;;;;;;67.82;31.40;;;4.70;99.90;;;;;;5091300;28;20127;-77
2021/12/09 12:50:18;;;;;;;49.50;28.40;;;4.80;99.90;;;;;;5086875;28;20036;-77
2021/12/09 12:52:48;;;;;;;44.25;25.67;;;4.50;99.90;;;;;;5091848;28;20131;-77
2021/12/09 12:55:20;;;;;;;36.88;20.35;;;4.60;99.90;;;;;;5092205;28;20459;-77
2021/12/09 12:58:06;;;;;;;41.75;22.17;;;4.50;99.90;;;;;;5092958;28;20044;-77
2021/12/09 13:00:38;;;;;;;41.22;23.70;;;4.60;99.90;;;;;;5093229;28;20048;-77
2021/12/09 13:03:18;;;;;;;44.20;25.00;;;4.80;99.90;;;;;;5092900;28;20032;-78
2021/12/09 13:06:07;;;;;;;43.67;25.70;;;4.70;99.90;;;;;;5093199;28;20120;-77
2021/12/09 13:11:47;;;;;;;42.47;24.52;;;4.60;99.90;;;;;;5092780;28;20064;-77
2021/12/09 13:14:36;;;;;;;43.42;25.00;;;4.70;99.90;;;;;;5092639;28;20135;-77
2021/12/09 13:17:35;;;;;;;47.28;27.05;;;4.60;99.90;;;;;;5092675;28;20059;-77
2021/12/09 13:20:10;;;;;;;43.05;24.30;;;4.40;99.90;;;;;;5093181;28;20158;-77
2021/12/09 13:22:43;;;;;;;42.92;24.63;;;4.30;99.90;;;;;;5091541;28;20557;-77
2021/12/09 13:25:29;;;;;;;41.83;24.00;;;4.30;99.90;;;;;;5096707;28;20060;-77
2021/12/09 13:33:47;;;;;;;48.38;29.17;;;4.20;99.90;;;;;;5096450;28;20047;-77
2021/12/09 13:36:36;;;;;;;49.40;27.13;;;4.00;99.90;;;;;;5096480;28;20120;-76
2021/12/09 13:48:27;;;;;;;51.90;27.70;;;3.80;99.90;;;;;;5091801;28;20083;-77
2021/12/09 13:51:13;;;;;;;51.40;28.15;;;3.70;99.90;;;;;;5075852;28;20123;-77
2021/12/09 13:56:30;;;;;;;53.90;29.42;;;3.60;99.90;;;;;;5091702;28;20044;-77
2021/12/09 13:59:02;;;;;;;50.13;27.98;;;3.50;99.90;;;;;;5075548;28;20055;-76
2021/12/09 14:01:33;;;;;;;51.20;28.30;;;3.50;99.90;;;;;;5074338;28;20040;-78
2021/12/09 14:04:07;;;;;;;41.40;21.27;;;3.50;99.90;;;;;;5075630;28;20068;-78
2021/12/09 14:06:51;;;;;;;47.33;27.55;;;3.30;99.90;;;;;;5075579;28;20498;-79
2021/12/09 14:09:30;;;;;;;49.03;27.67;;;3.10;99.90;;;;;;5075517;28;20068;-78
2021/12/09 14:12:25;;;;;;;51.90;28.13;;;3.20;99.90;;;;;;5074203;28;20070;-78
2021/12/09 14:15:05;;;;;;;51.95;28.35;;;3.10;99.90;;;;;;5085822;28;20561;-79
2021/12/09 14:17:36;;;;;;;64.05;33.17;;;3.00;99.90;;;;;;5110838;27;20044;-74
2021/12/09 14:20:15;;;;;;;56.20;31.20;;;3.00;99.90;;;;;;5115758;28;20048;-78
2021/12/09 14:22:51;;;;;;;59.75;30.77;;;2.90;99.90;;;;;;5114592;28;20109;-75
2021/12/09 14:25:27;;;;;;;56.28;30.20;;;3.00;99.90;;;;;;5115610;28;20036;-77
2021/12/09 14:28:59;;;;;;;60.33;30.73;;;2.80;99.90;;;;;;5085263;28;20086;-75
2021/12/09 14:31:27;;;;;;;59.05;29.30;;;2.70;99.90;;;;;;5078935;28;20123;-75
2021/12/09 14:34:45;;;;;;;56.58;28.42;;;2.80;99.90;;;;;;5094871;28;20040;-76
2021/12/09 14:37:35;;;;;;;58.35;29.92;;;2.60;99.90;;;;;;5101425;28;20134;-76
2021/12/09 14:40:07;;;;;;;57.63;29.40;;;2.60;99.90;;;;;;5073253;28;20043;-77
2021/12/09 14:42:56;;;;;;;57.00;27.00;;;2.60;99.90;;;;;;5088355;28;20123;-76
2021/12/09 14:45:29;;;;;;;60.03;29.08;;;2.50;99.90;;;;;;5094754;28;20115;-77
2021/12/09 14:48:05;;;;;;;68.95;34.22;;;2.40;99.90;;;;;;5098736;28;20070;-77
2021/12/09 14:50:35;;;;;;;;;;;2.40;99.90;;;;;;5094025;28;20089;-76
2021/12/09 14:53:39;;;;;;;83.05;40.08;;;2.60;99.90;;;;;;5097115;28;19942;-77
2021/12/09 14:56:21;;;;;;;72.55;34.05;;;2.50;99.90;;;;;;5093138;28;20093;-77
2021/12/09 14:58:48;;;;;;;74.47;37.40;;;2.60;99.90;;;;;;5081178;28;20114;-77
2021/12/09 15:01:22;;;;;;;83.35;38.17;;;2.50;99.90;;;;;;5094616;28;20044;-77
2021/12/09 15:04:02;;;;;;;81.35;37.95;;;2.50;99.90;;;;;;5094337;28;20063;-77
2021/12/09 15:06:55;;;;;;;76.80;35.05;;;2.50;99.90;;;;;;5093327;28;20064;-77
2021/12/09 15:09:23;;;;;;;62.08;30.35;;;2.50;99.90;;;;;;5105557;28;20045;-77
2021/12/09 15:12:24;;;;;;;77.88;34.78;;;2.50;99.90;;;;;;5086952;28;20032;-76
2021/12/09 15:14:52;;;;;;;72.00;31.60;;;2.50;99.90;;;;;;5089440;28;20548;-76
2021/12/09 15:17:21;;;;;;;80.82;36.10;;;2.50;99.90;;;;;;5092751;28;20112;-76
2021/12/09 15:20:04;;;;;;;74.93;33.97;;;2.50;99.90;;;;;;5092972;28;20044;-74
2021/12/09 15:22:56;;;;;;;81.07;35.28;;;2.60;99.90;;;;;;5089339;28;20044;-74
2021/12/09 15:25:36;;;;;;;77.05;34.88;;;2.70;99.90;;;;;;5091523;28;20040;-74
2021/12/09 15:28:06;;;;;;;59.17;27.92;;;2.70;99.90;;;;;;5093850;28;20039;-75
2021/12/09 15:31:01;;;;;;;82.70;39.00;;;2.70;99.90;;;;;;5096069;28;20173;-74
2021/12/09 15:33:42;;;;;;;85.55;37.80;;;2.70;99.90;;;;;;5085666;28;20047;-74
2021/12/09 15:36:23;;;;;;;96.72;44.03;;;2.70;99.90;;;;;;5092366;28;20064;-74
2021/12/09 15:39:15;;;;;;;84.00;36.45;;;2.70;99.90;;;;;;5094112;28;20048;-74
2021/12/09 15:41:49;;;;;;;77.70;35.33;;;2.60;99.90;;;;;;5088848;28;20040;-74
2021/12/09 15:44:22;;;;;;;82.43;37.08;;;2.60;99.90;;;;;;5089211;28;20486;-74
2021/12/09 15:46:56;;;;;;;81.85;35.83;;;2.60;99.90;;;;;;5091222;28;20040;-74
2021/12/09 15:49:28;;;;;;;93.10;39.42;;;2.70;99.90;;;;;;5091789;28;20043;-74
2021/12/09 15:52:02;;;;;;;84.50;34.90;;;2.80;99.90;;;;;;5089728;28;20109;-74
2021/12/09 15:54:38;;;;;;;79.93;32.75;;;2.70;99.90;;;;;;5092278;28;20051;-75
2021/12/09 15:57:16;;;;;;;88.13;37.45;;;2.70;99.90;;;;;;5092023;28;20036;-75
2021/12/09 15:59:45;;;;;;;84.00;33.75;;;2.80;99.90;;;;;;5093313;28;20406;-74
2021/12/09 16:02:17;;;;;;;81.00;33.65;;;2.80;99.90;;;;;;5092094;28;20046;-74
2021/12/09 16:04:46;;;;;;;79.93;33.40;;;2.80;99.90;;;;;;5093736;28;20055;-74
2021/12/09 16:07:14;;;;;;;90.22;36.97;;;2.80;99.90;;;;;;5088257;28;20056;-74
2021/12/09 16:09:42;;;;;;;83.22;35.20;;;2.80;99.90;;;;;;5086938;28;20071;-74
2021/12/09 16:12:11;;;;;;;81.63;35.55;;;2.70;99.90;;;;;;5092009;28;20040;-74
2021/12/09 16:14:46;;;;;;;82.20;35.20;;;2.70;99.90;;;;;;5093285;28;20044;-74
2021/12/09 16:17:20;;;;;;;91.20;38.30;;;2.70;99.90;;;;;;5087161;28;20036;-74
2021/12/09 16:19:51;;;;;;;87.05;34.88;;;2.80;99.90;;;;;;5093047;28;20060;-75
2021/12/09 16:24:50;;;;;;;92.32;36.80;;;2.70;99.90;;;;;;5093504;28;20457;-74
2021/12/09 16:27:24;;;;;;;81.75;32.55;;;2.80;99.90;;;;;;5093370;28;20055;-74
2021/12/09 16:29:54;;;;;;;96.15;39.25;;;2.90;99.90;;;;;;5093460;28;20065;-74
2021/12/09 16:32:22;;;;;;;86.18;36.35;;;2.80;99.90;;;;;;5091678;28;20043;-74
2021/12/09 16:34:54;;;;;;;88.97;37.58;;;2.90;99.90;;;;;;5091927;28;20055;-74
2021/12/09 16:37:22;;;;;;;81.70;33.70;;;2.80;99.90;;;;;;5091733;28;20055;-74
2021/12/09 16:39:49;;;;;;;89.25;35.75;;;2.80;99.90;;;;;;5077782;28;20031;-74
2021/12/09 16:42:17;;;;;;;83.47;35.75;;;2.80;99.90;;;;;;5093013;28;20433;-74
2021/12/09 16:44:45;;;;;;;87.82;37.58;;;2.80;99.90;;;;;;5093353;28;20478;-75
2021/12/09 16:47:15;;;;;;;87.53;34.85;;;2.80;99.90;;;;;;5091949;28;20036;-75
2021/12/09 16:49:42;;;;;;;88.18;36.35;;;2.80;99.90;;;;;;5092570;28;20058;-75
2021/12/09 16:52:10;;;;;;;85.35;35.30;;;2.80;99.90;;;;;;5091767;28;20379;-74
2021/12/09 16:54:43;;;;;;;96.70;41.25;;;2.80;99.90;;;;;;5080066;28;20029;-74
2021/12/09 16:57:21;;;;;;;93.75;36.33;;;2.90;99.90;;;;;;5091583;28;20044;-75
2021/12/09 16:59:52;;;;;;;79.55;31.05;;;2.90;99.90;;;;;;5096022;28;20398;-75
2021/12/09 17:02:21;;;;;;;81.47;31.60;;;2.80;99.90;;;;;;5097061;28;20052;-76
2021/12/09 17:04:51;;;;;;;85.30;35.83;;;2.90;99.90;;;;;;5095417;28;20036;-74
2021/12/09 17:07:20;;;;;;;79.90;33.08;;;2.90;99.90;;;;;;5087745;28;20082;-75
2021/12/09 17:09:49;;;;;;;84.47;33.42;;;3.00;99.90;;;;;;5094287;28;20044;-75
2021/12/09 17:12:17;;;;;;;88.53;36.35;;;3.00;99.90;;;;;;5095900;28;20043;-73
2021/12/09 17:15:10;;;;;;;93.43;37.83;;;3.10;99.90;;;;;;5095415;28;20055;-75
2021/12/09 17:17:39;;;;;;;82.05;32.55;;;3.00;99.90;;;;;;5095745;28;20459;-74
2021/12/09 17:20:08;;;;;;;88.15;33.53;;;2.90;99.90;;;;;;5095549;28;20036;-75
2021/12/09 17:22:38;;;;;;;93.15;35.63;;;2.90;99.90;;;;;;5096473;28;20119;-75
2021/12/09 17:25:05;;;;;;;93.90;37.20;;;3.00;99.90;;;;;;5091918;28;20494;-75
2021/12/09 17:27:33;;;;;;;92.45;35.55;;;3.00;99.90;;;;;;5094866;28;20040;-73
2021/12/09 17:30:08;;;;;;;101.05;35.45;;;3.00;99.90;;;;;;5094999;28;20044;-75
2021/12/09 17:32:42;;;;;;;95.18;35.70;;;3.10;99.90;;;;;;5090240;28;20062;-74
2021/12/09 17:35:13;;;;;;;92.70;35.35;;;3.00;99.90;;;;;;5096059;28;20119;-75
2021/12/09 17:37:41;;;;;;;90.80;33.92;;;3.00;99.90;;;;;;5094384;28;20056;-74
2021/12/09 17:40:13;;;;;;;90.40;32.80;;;2.90;99.90;;;;;;5088708;28;20376;-74
2021/12/09 17:46:18;;;;;;;97.63;34.38;;;3.00;99.90;;;;;;5075352;28;20037;-74
2021/12/09 17:49:41;;;;;;;100.78;34.40;;;2.90;99.90;;;;;;5076443;28;20064;-75
2021/12/09 17:55:23;;;;;;;105.80;33.63;;;2.90;99.90;;;;;;5084419;28;20047;-75
2021/12/09 17:58:18;;;;;;;84.68;29.27;;;2.90;99.90;;;;;;5094647;28;20481;-74
2021/12/09 18:01:38;;;;;;;106.60;34.75;;;2.90;99.90;;;;;;5077477;28;20044;-74
2021/12/09 18:04:22;;;;;;;97.90;32.90;;;3.00;99.90;;;;;;5088878;28;20143;-74
2021/12/09 18:07:40;;;;;;;77.57;26.33;;;2.90;99.90;;;;;;5091206;28;20040;-74
2021/12/09 18:10:10;;;;;;;93.70;33.53;;;3.00;99.90;;;;;;5089803;28;20070;-75
2021/12/09 18:13:03;;;;;;;93.97;30.70;;;2.90;99.90;;;;;;5090559;28;20029;-74
2021/12/09 18:15:37;;;;;;;108.28;34.28;;;2.90;99.90;;;;;;5095243;28;20040;-77
2021/12/09 18:18:07;;;;;;;115.13;38.80;;;3.00;99.90;;;;;;5093249;28;20039;-75
2021/12/09 18:20:37;;;;;;;117.72;34.40;;;3.00;99.90;;;;;;5090274;28;20456;-76
2021/12/09 18:23:06;;;;;;;111.90;36.53;;;3.00;99.90;;;;;;5093744;28;20036;-75
2021/12/09 18:25:34;;;;;;;107.35;34.75;;;3.00;99.90;;;;;;5094271;28;20043;-75
2021/12/09 18:28:21;;;;;;;90.85;28.45;;;2.90;99.90;;;;;;5091545;28;20060;-75
2021/12/09 18:30:50;;;;;;;108.68;35.38;;;2.90;99.90;;;;;;5093758;28;20067;-76
2021/12/09 18:33:18;;;;;;;113.68;34.33;;;3.00;99.90;;;;;;5083696;28;20533;-75
2021/12/09 18:35:49;;;;;;;111.40;33.67;;;2.90;99.90;;;;;;5093801;28;20052;-75
2021/12/09 18:38:18;;;;;;;92.63;27.48;;;2.80;99.90;;;;;;5095077;28;20078;-75
2021/12/09 18:40:50;;;;;;;135.65;35.58;;;2.80;99.90;;;;;;5094783;28;20474;-75
2021/12/09 18:43:18;;;;;;;94.40;27.58;;;2.80;99.90;;;;;;5093696;28;20113;-75
2021/12/09 18:45:46;;;;;;;104.15;32.22;;;2.80;99.90;;;;;;5094852;28;20073;-73
2021/12/09 18:48:15;;;;;;;103.47;32.38;;;2.90;99.90;;;;;;5095220;28;20036;-75
2021/12/09 18:50:45;;;;;;;97.38;31.30;;;2.90;99.90;;;;;;5094927;28;20482;-76
2021/12/09 18:53:13;;;;;;;102.32;32.30;;;2.90;99.90;;;;;;5093335;28;20403;-75
2021/12/09 18:55:43;;;;;;;114.55;33.20;;;2.90;99.90;;;;;;5094617;28;20055;-75
2021/12/09 18:58:13;;;;;;;92.82;28.00;;;2.90;99.90;;;;;;5094481;28;20048;-74
2021/12/09 19:00:46;;;;;;;95.25;27.92;;;2.90;99.90;;;;;;5094534;28;20082;-75
2021/12/09 19:03:15;;;;;;;113.28;33.80;;;2.80;99.90;;;;;;5079796;28;20043;-75
2021/12/09 19:05:43;;;;;;;101.20;29.98;;;2.80;99.90;;;;;;5094399;28;20032;-75
2021/12/09 19:08:10;;;;;;;98.43;29.25;;;2.80;99.90;;;;;;5092430;28;20044;-75
2021/12/09 19:10:38;;;;;;;108.88;31.05;;;2.90;99.90;;;;;;5092487;28;20025;-76
2021/12/09 19:13:06;;;;;;;75.75;23.88;;;2.90;99.90;;;;;;5091997;28;20089;-75
2021/12/09 19:15:33;;;;;;;114.93;32.97;;;2.90;99.90;;;;;;5093578;28;20048;-75
2021/12/09 19:18:16;;;;;;;105.15;31.20;;;2.90;99.90;;;;;;5093004;28;20386;-76
2021/12/09 19:20:43;;;;;;;96.30;30.85;;;2.90;99.90;;;;;;5091120;28;20040;-75
2021/12/09 19:23:12;;;;;;;104.82;30.58;;;2.90;99.90;;;;;;5093699;28;20032;-75
2021/12/09 19:25:41;;;;;;;101.97;32.72;;;2.90;99.90;;;;;;5088763;28;20070;-76
2021/12/09 19:28:09;;;;;;;104.78;31.92;;;3.00;99.90;;;;;;5093022;28;20470;-73
2021/12/09 19:30:37;;;;;;;114.50;34.95;;;3.00;99.90;;;;;;5092896;28;20044;-73
2021/12/09 19:33:04;;;;;;;109.07;32.15;;;2.90;99.90;;;;;;5092742;28;20032;-73
2021/12/09 19:35:34;;;;;;;108.90;35.28;;;3.00;99.90;;;;;;5079594;28;20108;-73
2021/12/09 19:38:03;;;;;;;113.57;31.98;;;3.00;99.90;;;;;;5078301;28;20071;-73
2021/12/09 19:40:32;;;;;;;133.10;34.65;;;3.00;99.90;;;;;;5093939;28;20474;-74
2021/12/09 19:42:59;;;;;;;121.97;35.10;;;3.10;99.90;;;;;;5092950;28;20386;-73
2021/12/09 19:45:26;;;;;;;100.30;30.23;;;3.10;99.90;;;;;;5093360;28;20044;-73
2021/12/09 19:47:57;;;;;;;125.22;38.25;;;3.10;99.90;;;;;;5092282;28;20068;-72
2021/12/09 19:50:24;;;;;;;116.60;35.40;;;3.10;99.90;;;;;;5093812;28;20040;-72
2021/12/09 19:52:53;;;;;;;109.70;34.17;;;3.10;99.90;;;;;;5092343;28;20063;-71
2021/12/09 19:55:23;;;;;;;120.70;33.80;;;3.10;99.90;;;;;;5093770;28;20060;-73
2021/12/09 19:57:52;;;;;;;120.93;36.80;;;3.10;99.90;;;;;;5091669;28;20048;-73
2021/12/09 20:00:23;;;;;;;124.25;36.03;;;3.10;99.90;;;;;;5093839;28;20408;-72
2021/12/09 20:02:51;;;;;;;134.68;39.35;;;3.10;99.90;;;;;;5091841;28;20036;-74
2021/12/09 20:05:19;;;;;;;115.00;35.83;;;3.10;99.90;;;;;;5092311;28;20036;-73
2021/12/09 20:07:46;;;;;;;127.00;38.72;;;3.20;99.90;;;;;;5086947;28;20044;-74
2021/12/09 20:10:17;;;;;;;121.47;38.72;;;3.20;99.90;;;;;;5090887;28;20045;-73
2021/12/09 20:12:44;;;;;;;130.35;39.75;;;3.20;99.90;;;;;;5091067;28;20032;-73
2021/12/09 20:15:14;;;;;;;114.57;37.28;;;3.20;99.90;;;;;;5093729;28;20036;-74
2021/12/09 20:17:41;;;;;;;113.53;38.53;;;3.20;99.90;;;;;;5092436;28;20135;-74
2021/12/09 20:20:11;;;;;;;107.22;37.17;;;3.30;99.90;;;;;;5092117;28;20032;-74
2021/12/09 20:22:43;;;;;;;107.53;36.28;;;3.20;99.90;;;;;;5093337;28;20040;-74
2021/12/09 20:25:13;;;;;;;98.47;32.00;;;3.30;99.90;;;;;;5091756;28;20039;-74
2021/12/09 20:27:42;;;;;;;53.40;19.75;;;3.30;99.90;;;;;;5093383;28;20047;-74
2021/12/09 20:30:20;;;;;;;107.28;34.70;;;3.30;99.90;;;;;;5091616;28;20040;-74
2021/12/09 20:32:50;;;;;;;100.13;35.28;;;3.30;99.90;;;;;;5084942;28;20433;-74
2021/12/09 20:35:18;;;;;;;80.15;28.15;;;3.30;99.90;;;;;;5080927;28;20068;-74
2021/12/09 20:37:45;;;;;;;101.55;35.00;;;3.30;99.90;;;;;;5090997;28;20578;-74
2021/12/09 20:40:15;;;;;;;107.07;37.35;;;3.30;99.90;;;;;;5091889;28;20074;-74
2021/12/09 20:42:45;;;;;;;100.38;35.33;;;3.30;99.90;;;;;;5092950;28;20044;-74
2021/12/09 20:45:15;;;;;;;91.15;34.30;;;3.30;99.90;;;;;;5092873;28;20040;-74
2021/12/09 20:47:46;;;;;;;102.05;35.42;;;3.30;99.90;;;;;;5093178;28;20143;-74
2021/12/09 20:50:20;;;;;;;98.93;37.22;;;3.30;99.90;;;;;;5091276;28;20044;-74
2021/12/09 20:52:47;;;;;;;108.15;37.88;;;3.40;99.90;;;;;;5092966;28;20116;-74
2021/12/09 20:55:15;;;;;;;98.82;36.90;;;3.50;99.90;;;;;;5080048;28;20032;-74
2021/12/09 20:57:42;;;;;;;88.90;30.08;;;3.50;99.90;;;;;;5079270;28;20056;-74
2021/12/09 21:00:13;;;;;;;97.93;36.08;;;3.50;99.90;;;;;;5079476;28;20036;-74
2021/12/09 21:03:05;;;;;;;108.00;35.38;;;3.40;99.90;;;;;;5085949;28;20044;-75
2021/12/09 21:05:46;;;;;;;97.25;35.33;;;3.40;99.90;;;;;;5093767;28;20490;-73
2021/12/09 21:08:13;;;;;;;94.47;34.22;;;3.30;99.90;;;;;;5091485;28;20482;-73
2021/12/09 21:10:41;;;;;;;97.85;36.28;;;3.30;99.90;;;;;;5092660;28;20504;-73
2021/12/09 21:13:10;;;;;;;93.72;34.60;;;3.50;99.90;;;;;;5074461;28;20041;-73
2021/12/09 21:15:38;;;;;;;96.75;33.10;;;3.40;99.90;;;;;;5092695;28;20553;-73
2021/12/09 21:18:07;;;;;;;94.47;34.75;;;3.40;99.90;;;;;;5091342;28;20047;-73
2021/12/09 21:20:37;;;;;;;104.88;37.55;;;3.40;99.90;;;;;;5088845;28;20040;-73
2021/12/09 21:23:07;;;;;;;97.20;35.88;;;3.40;99.90;;;;;;5091557;28;20040;-73
2021/12/09 21:25:35;;;;;;;97.60;36.67;;;3.40;99.90;;;;;;5092549;28;20043;-73
2021/12/09 21:28:03;;;;;;;100.57;36.72;;;3.30;99.90;;;;;;5093899;28;20051;-73
2021/12/09 21:30:31;;;;;;;102.07;35.70;;;3.40;99.90;;;;;;5089295;28;20055;-73
2021/12/09 21:33:05;;;;;;;90.22;32.13;;;3.50;99.90;;;;;;5093030;28;20060;-73
2021/12/09 21:35:38;;;;;;;91.03;33.55;;;3.30;99.90;;;;;;5092572;28;20036;-73
2021/12/09 21:38:11;;;;;;;98.80;35.92;;;3.30;99.90;;;;;;5090951;28;20147;-73
2021/12/09 21:40:38;;;;;;;95.70;36.80;;;3.30;99.90;;;;;;5092762;28;20079;-73
2021/12/09 21:43:31;;;;;;;98.95;35.25;;;3.30;99.90;;;;;;5092642;28;20046;-73
2021/12/09 21:50:17;;;;;;;94.07;33.38;;;3.30;99.90;;;;;;5094911;28;20038;-74
2021/12/09 21:53:10;;;;;;;106.28;37.70;;;3.30;99.90;;;;;;5094700;28;20902;-73
2021/12/09 21:55:46;;;;;;;98.88;35.53;;;3.30;99.90;;;;;;5096217;28;20105;-74
2021/12/09 21:58:18;;;;;;;83.57;31.10;;;3.20;99.90;;;;;;5093929;28;20064;-74
2021/12/09 22:00:45;;;;;;;104.38;38.22;;;3.20;99.90;;;;;;5096056;28;20142;-73
2021/12/09 22:03:14;;;;;;;108.03;37.65;;;3.20;99.90;;;;;;5095366;28;20054;-73
2021/12/09 22:05:41;;;;;;;102.47;35.13;;;3.30;99.90;;;;;;5095843;28;20042;-73
2021/12/09 22:08:14;;;;;;;91.63;33.35;;;3.20;99.90;;;;;;5095887;28;20032;-73
2021/12/09 22:10:42;;;;;;;100.53;36.45;;;3.30;99.90;;;;;;5094297;28;20083;-73
2021/12/09 22:13:13;;;;;;;96.20;36.85;;;3.20;99.90;;;;;;5094323;28;20058;-73
2021/12/09 22:15:42;;;;;;;101.20;35.85;;;3.30;99.90;;;;;;5094536;28;20052;-73
2021/12/09 22:18:14;;;;;;;102.55;36.20;;;3.30;99.90;;;;;;5094206;28;20043;-73
2021/12/09 22:20:46;;;;;;;96.35;36.97;;;3.50;99.90;;;;;;5094439;28;20054;-73
2021/12/09 22:23:13;;;;;;;101.30;35.95;;;3.40;99.90;;;;;;5095502;28;20414;-73
2021/12/09 22:26:05;;;;;;;97.32;35.47;;;3.30;99.90;;;;;;5095471;28;20047;-73
2021/12/09 22:28:43;;;;;;;96.40;35.20;;;3.30;99.90;;;;;;5094558;28;20090;-73
2021/12/09 22:31:12;;;;;;;92.75;35.40;;;3.40;99.90;;;;;;5095600;28;20076;-73
2021/12/09 22:33:44;;;;;;;88.20;32.92;;;3.30;99.90;;;;;;5093865;28;20040;-73
2021/12/09 22:36:36;;;;;;;95.65;35.95;;;3.20;99.90;;;;;;5093900;28;20097;-73
2021/12/09 22:39:29;;;;;;;99.32;36.10;;;3.20;99.90;;;;;;5093722;28;20472;-73
2021/12/09 22:41:56;;;;;;;102.93;36.55;;;3.20;99.90;;;;;;5077301;28;20075;-73
2021/12/09 22:44:49;;;;;;;98.40;35.63;;;3.30;99.90;;;;;;5095237;28;20051;-73
2021/12/09 22:47:33;;;;;;;93.65;34.63;;;3.20;99.90;;;;;;5094704;28;20043;-74
2021/12/09 22:50:25;;;;;;;90.70;34.05;;;3.30;99.90;;;;;;5093468;28;20048;-73
2021/12/09 22:52:55;;;;;;;97.53;35.80;;;3.20;99.90;;;;;;5093848;28;20094;-73
2021/12/09 22:55:28;;;;;;;96.35;36.28;;;3.10;99.90;;;;;;5095063;28;20032;-73
2021/12/09 22:58:11;;;;;;;83.03;31.75;;;3.20;99.90;;;;;;5094933;28;20039;-73
2021/12/09 23:00:46;;;;;;;105.50;38.72;;;3.10;99.90;;;;;;5094992;28;20501;-73
2021/12/09 23:03:42;;;;;;;97.20;35.45;;;3.20;99.90;;;;;;5094492;28;20750;-73
2021/12/09 23:06:35;;;;;;;98.93;35.28;;;3.30;99.90;;;;;;5093216;28;20040;-73
2021/12/09 23:09:31;;;;;;;91.65;33.85;;;3.20;99.90;;;;;;5094096;28;20067;-73
2021/12/09 23:11:59;;;;;;;88.65;31.52;;;3.10;99.90;;;;;;5092617;28;20161;-73
2021/12/09 23:17:13;;;;;;;94.57;33.47;;;3.00;99.90;;;;;;5093323;28;20040;-73
2021/12/09 23:19:51;;;;;;;65.63;24.50;;;3.00;99.90;;;;;;5094361;28;20127;-73
2021/12/09 23:22:20;;;;;;;95.45;32.22;;;2.90;99.90;;;;;;5092963;28;20040;-73
2021/12/09 23:24:49;;;;;;;76.90;26.77;;;2.90;99.90;;;;;;5092742;28;20507;-73
2021/12/09 23:27:41;;;;;;;94.28;32.65;;;2.90;99.90;;;;;;5094456;28;20032;-73